Time;durP1;ratioP1;P1;durP2;ratioP2;P2;SDS_P1;SDS_P2;PMS_P1;PMS_P2;Temp;Humidity;BMP_temperature;BMP_pressure;BME280_temperature;BME280_humidity;BME280_pressure;Samples;Min_cycle;Max_cycle;Signal;HPM_P1;HPM_P2
2024/02/27 00:01:21;;;;;;;14.73;8.15;;;;;;;6.32;100.00;95500.00;4974932;28;20062;-68
2024/02/27 00:03:46;;;;;;;12.63;7.97;;;;;;;6.26;100.00;95493.28;4979125;28;20034;-68
2024/02/27 00:06:12;;;;;;;11.63;7.10;;;;;;;6.24;100.00;95487.44;4964059;28;20130;-69
2024/02/27 00:08:37;;;;;;;13.35;8.43;;;;;;;6.26;100.00;95493.28;4981805;28;20031;-69
2024/02/27 00:11:03;;;;;;;11.80;8.45;;;;;;;6.22;100.00;95504.13;4980375;28;20066;-70
2024/02/27 00:13:28;;;;;;;15.30;8.30;;;;;;;6.22;100.00;95501.41;4978488;28;20038;-69
2024/02/27 00:15:54;;;;;;;11.18;7.53;;;;;;;6.19;100.00;95496.69;4979381;28;20105;-69
2024/02/27 00:18:19;;;;;;;13.00;8.30;;;;;;;6.21;100.00;95493.59;4974471;28;20084;-69
2024/02/27 00:20:45;;;;;;;16.38;8.82;;;;;;;6.19;100.00;95496.69;4980314;28;20466;-69
2024/02/27 00:23:12;;;;;;;11.05;7.45;;;;;;;6.23;100.00;95492.09;4974451;28;20042;-68
2024/02/27 00:25:37;;;;;;;13.68;7.13;;;;;;;6.20;100.00;95484.69;4980593;28;20035;-68
2024/02/27 00:28:03;;;;;;;9.98;6.88;;;;;;;6.23;100.00;95477.72;4998000;28;20068;-68
2024/02/27 00:30:28;;;;;;;14.27;7.78;;;;;;;6.25;100.00;95475.44;4978213;28;20034;-68
2024/02/27 00:32:54;;;;;;;11.25;7.20;;;;;;;6.25;100.00;95483.59;4979145;28;20393;-68
2024/02/27 00:35:19;;;;;;;13.73;7.32;;;;;;;6.22;100.00;95473.44;4973192;28;20081;-67
2024/02/27 00:37:44;;;;;;;13.57;7.68;;;;;;;6.17;100.00;95484.63;4978988;28;20038;-67
2024/02/27 00:40:12;;;;;;;14.25;7.85;;;;;;;6.16;100.00;95481.13;4974262;28;20046;-68
2024/02/27 00:42:38;;;;;;;13.77;8.40;;;;;;;6.11;100.00;95474.06;4979561;28;20034;-68
2024/02/27 00:45:04;;;;;;;12.48;6.47;;;;;;;6.12;100.00;95475.66;4974319;28;20528;-68
2024/02/27 00:47:29;;;;;;;15.00;8.07;;;;;;;6.18;100.00;95464.47;4978671;28;20051;-69
2024/02/27 00:49:55;;;;;;;13.95;8.35;;;;;;;6.11;100.00;95470.56;4978620;28;20034;-69
2024/02/27 00:52:20;;;;;;;12.07;6.82;;;;;;;6.07;100.00;95475.97;4972845;28;20549;-67
2024/02/27 00:54:45;;;;;;;13.60;7.72;;;;;;;6.04;100.00;95484.06;4979503;28;20090;-67
2024/02/27 00:57:11;;;;;;;15.50;7.00;;;;;;;6.01;100.00;95477.41;4974162;28;20583;-67
2024/02/27 00:59:36;;;;;;;12.40;6.75;;;;;;;5.99;100.00;95479.72;4970510;28;20105;-66
2024/02/27 01:02:02;;;;;;;11.55;7.28;;;;;;;6.00;100.00;95484.00;4976501;28;20050;-67
2024/02/27 01:04:28;;;;;;;12.65;6.60;;;;;;;6.02;100.00;95472.78;4979448;28;20054;-67
2024/02/27 01:06:53;;;;;;;11.43;6.93;;;;;;;5.95;100.00;95481.56;4997503;28;20073;-66
2024/02/27 01:09:18;;;;;;;12.70;6.85;;;;;;;5.99;100.00;95473.50;4982869;28;20109;-66
2024/02/27 01:11:44;;;;;;;10.77;6.78;;;;;;;5.93;100.00;95492.81;4982989;28;20038;-67
2024/02/27 01:14:09;;;;;;;10.77;6.40;;;;;;;5.88;100.00;95486.91;4976721;28;20048;-67
2024/02/27 01:16:35;;;;;;;12.18;6.35;;;;;;;5.84;100.00;95495.00;4982874;28;20038;-67
2024/02/27 01:19:00;;;;;;;13.48;6.63;;;;;;;5.80;100.00;95491.47;4982754;28;20088;-68
2024/02/27 01:21:25;;;;;;;9.23;5.93;;;;;;;5.78;100.00;95485.63;4980974;28;20071;-67
2024/02/27 01:23:51;;;;;;;9.50;6.13;;;;;;;5.79;100.00;95487.16;4988830;28;20102;-66
2024/02/27 01:26:17;;;;;;;11.07;6.80;;;;;;;5.76;100.00;95482.44;4985089;28;20057;-67
2024/02/27 01:28:42;;;;;;;9.65;5.95;;;;;;;5.78;100.00;95493.75;4985721;28;20313;-67
2024/02/27 01:31:07;;;;;;;10.18;6.90;;;;;;;5.80;100.00;95490.66;4979321;28;20043;-67
2024/02/27 01:33:33;;;;;;;10.80;6.63;;;;;;;5.79;100.00;95494.53;4981940;28;20054;-67
2024/02/27 01:35:58;;;;;;;9.98;6.07;;;;;;;5.73;100.00;95489.41;4982453;28;20046;-66
2024/02/27 01:38:23;;;;;;;7.03;5.10;;;;;;;5.72;100.00;95479.69;4978831;28;20508;-67
2024/02/27 01:40:49;;;;;;;14.60;6.32;;;;;;;5.74;100.00;95479.31;4982000;28;20046;-67
2024/02/27 01:43:21;;;;;;;9.98;6.03;;;;;;;5.69;100.00;95485.88;4978078;28;20074;-67
2024/02/27 01:45:47;;;;;;;9.80;5.18;;;;;;;5.71;100.00;95496.38;4982076;28;20397;-67
2024/02/27 01:48:13;;;;;;;11.77;6.60;;;;;;;5.72;100.00;95498.69;4976745;28;20050;-67
2024/02/27 01:50:39;;;;;;;11.80;5.80;;;;;;;5.73;100.00;95507.66;4981691;28;20039;-67
2024/02/27 01:53:05;;;;;;;10.07;6.03;;;;;;;5.69;100.00;95509.50;4976409;28;20057;-68
2024/02/27 01:55:30;;;;;;;10.38;6.45;;;;;;;5.65;100.00;95505.97;4982014;28;20133;-67
2024/02/27 01:57:56;;;;;;;10.57;5.38;;;;;;;5.62;100.00;95509.38;4981352;28;20137;-67
2024/02/27 02:00:21;;;;;;;11.07;6.30;;;;;;;5.61;100.00;95511.31;4976191;28;20077;-67
2024/02/27 02:02:47;;;;;;;10.30;5.20;;;;;;;5.65;100.00;95520.31;4982230;28;20424;-68
2024/02/27 02:05:12;;;;;;;11.30;5.70;;;;;;;5.66;100.00;95512.97;4975686;28;20038;-68
2024/02/27 02:07:40;;;;;;;12.13;6.13;;;;;;;5.63;100.00;95522.63;4980360;28;20856;-67
2024/02/27 02:10:09;;;;;;;10.52;5.88;;;;;;;5.68;100.00;95526.97;4983668;28;20708;-68
2024/02/27 02:12:34;;;;;;;9.70;5.90;;;;;;;5.63;100.00;95517.19;4978478;28;20034;-68
2024/02/27 02:15:01;;;;;;;8.18;5.35;;;;;;;5.71;100.00;95527.03;4976029;28;20619;-67
2024/02/27 02:17:26;;;;;;;16.38;5.72;;;;;;;5.69;100.00;95523.09;4976736;28;20038;-67
2024/02/27 02:19:51;;;;;;;10.85;6.00;;;;;;;5.64;100.00;95523.41;4982218;28;20097;-67
2024/02/27 02:22:17;;;;;;;9.50;5.47;;;;;;;5.69;100.00;95515.75;4976161;28;20052;-67
2024/02/27 02:24:43;;;;;;;10.48;5.72;;;;;;;5.68;100.00;95518.81;4983073;28;20034;-67
2024/02/27 02:27:13;;;;;;;8.43;4.97;;;;;;;5.86;100.00;95521.81;4975060;28;20129;-67
2024/02/27 02:29:38;;;;;;;8.23;5.13;;;;;;;5.65;100.00;95533.91;5002621;28;20080;-66
2024/02/27 02:32:04;;;;;;;11.52;5.38;;;;;;;5.59;100.00;95529.16;4976536;28;20417;-67
2024/02/27 02:34:29;;;;;;;8.27;5.00;;;;;;;5.62;100.00;95528.41;4980025;28;20401;-66
2024/02/27 02:36:55;;;;;;;8.68;4.70;;;;;;;5.66;100.00;95530.03;4982181;28;20493;-67
2024/02/27 02:39:21;;;;;;;10.15;5.50;;;;;;;5.77;100.00;95538.38;4992396;28;20061;-67
2024/02/27 02:41:46;;;;;;;9.27;5.20;;;;;;;5.61;100.00;95527.63;4982489;28;20050;-67
2024/02/27 02:44:12;;;;;;;9.30;5.47;;;;;;;5.78;100.00;95533.72;4976362;28;20042;-68
2024/02/27 02:46:37;;;;;;;8.80;5.75;;;;;;;5.61;100.00;95537.72;4979314;28;20030;-68
2024/02/27 02:49:03;;;;;;;8.32;4.85;;;;;;;5.65;100.00;95538.56;4976646;28;20038;-68
2024/02/27 02:51:30;;;;;;;10.02;4.57;;;;;;;5.79;100.00;95533.34;4980270;28;20042;-68
2024/02/27 02:53:56;;;;;;;7.88;4.75;;;;;;;5.83;100.00;95538.84;4981206;28;20072;-68
2024/02/27 02:56:21;;;;;;;9.15;5.40;;;;;;;5.82;100.00;95537.28;4976549;28;20058;-68
2024/02/27 02:58:47;;;;;;;10.00;5.05;;;;;;;5.63;100.00;95535.41;4980090;28;20046;-68
2024/02/27 03:01:12;;;;;;;12.23;5.90;;;;;;;5.69;100.00;95526.59;4974922;28;20104;-68
2024/02/27 03:03:37;;;;;;;10.07;5.68;;;;;;;5.66;100.00;95534.69;4972912;28;20486;-68
2024/02/27 03:06:04;;;;;;;9.82;6.05;;;;;;;5.64;100.00;95537.00;4977360;28;20436;-68
2024/02/27 03:08:29;;;;;;;9.50;5.45;;;;;;;5.65;100.00;95524.97;4981553;28;20046;-68
2024/02/27 03:10:56;;;;;;;8.77;5.93;;;;;;;5.61;100.00;95537.72;4986827;28;20043;-68
2024/02/27 03:13:22;;;;;;;8.57;5.57;;;;;;;5.60;100.00;95534.22;4975584;28;20054;-69
2024/02/27 03:15:47;;;;;;;10.85;6.03;;;;;;;5.64;100.00;95537.00;4980855;28;20045;-67
2024/02/27 03:18:12;;;;;;;9.25;5.40;;;;;;;5.62;100.00;95531.94;4976065;28;20046;-68
2024/02/27 03:20:38;;;;;;;9.68;5.90;;;;;;;5.61;100.00;95535.78;4970577;28;20072;-66
2024/02/27 03:23:04;;;;;;;10.18;5.90;;;;;;;5.65;100.00;95546.69;4975387;28;20517;-68
2024/02/27 03:25:29;;;;;;;12.77;6.30;;;;;;;5.62;100.00;95547.41;4980160;28;20046;-67
2024/02/27 03:27:55;;;;;;;14.60;6.50;;;;;;;5.66;100.00;95551.78;4980618;28;20034;-67
2024/02/27 03:30:20;;;;;;;13.80;6.32;;;;;;;5.66;100.00;95545.56;4983531;28;22126;-67
2024/02/27 03:32:46;;;;;;;10.75;7.18;;;;;;;5.65;100.00;95552.91;4981103;28;20037;-67
2024/02/27 03:35:11;;;;;;;12.25;6.57;;;;;;;5.67;100.00;95566.13;4975201;28;20062;-69
2024/02/27 03:37:37;;;;;;;13.13;6.60;;;;;;;5.69;100.00;95559.22;4980149;28;20760;-70
2024/02/27 03:40:04;;;;;;;11.50;6.00;;;;;;;5.62;100.00;95567.25;4976036;28;20394;-69
2024/02/27 03:42:31;;;;;;;11.25;6.07;;;;;;;5.61;100.00;95562.16;4979158;28;20050;-70
2024/02/27 03:44:56;;;;;;;10.75;6.38;;;;;;;5.63;100.00;95573.44;4979865;28;20489;-69
2024/02/27 03:47:21;;;;;;;10.52;6.70;;;;;;;5.67;100.00;95568.84;4974558;28;20588;-68
2024/02/27 03:49:47;;;;;;;10.20;6.18;;;;;;;5.69;100.00;95574.69;4979821;28;20034;-68
2024/02/27 03:52:12;;;;;;;9.98;6.68;;;;;;;5.63;100.00;95574.22;4974634;28;20120;-69
2024/02/27 03:54:38;;;;;;;11.48;6.15;;;;;;;5.66;100.00;95578.16;4979472;28;20045;-70
2024/02/27 03:57:03;;;;;;;13.75;6.47;;;;;;;5.67;100.00;95577.00;4974959;28;20046;-70
2024/02/27 03:59:30;;;;;;;11.27;6.47;;;;;;;5.66;100.00;95589.03;4979577;28;20054;-69
2024/02/27 04:01:56;;;;;;;9.13;5.60;;;;;;;5.61;100.00;95592.03;4978090;28;20520;-68
2024/02/27 04:04:21;;;;;;;10.93;6.38;;;;;;;5.55;100.00;95580.69;4974391;28;20575;-68
2024/02/27 04:06:46;;;;;;;10.13;6.38;;;;;;;5.53;100.00;95607.44;4979788;28;20039;-68
2024/02/27 04:09:12;;;;;;;13.07;6.20;;;;;;;5.49;100.00;95601.94;5000482;28;20058;-68
2024/02/27 04:11:37;;;;;;;10.73;6.82;;;;;;;5.46;100.00;95604.59;4980551;28;20046;-68
2024/02/27 04:14:05;;;;;;;8.00;5.07;;;;;;;5.49;100.00;95612.81;4975788;28;20108;-69
2024/02/27 04:16:31;;;;;;;9.68;5.60;;;;;;;5.49;100.00;95604.66;4977239;28;20050;-69
2024/02/27 04:18:56;;;;;;;11.52;6.43;;;;;;;5.44;100.00;95615.81;4979455;28;20134;-68
2024/02/27 04:21:22;;;;;;;8.88;5.55;;;;;;;5.38;100.00;95619.94;4974355;28;20125;-68
2024/02/27 04:23:47;;;;;;;10.20;6.10;;;;;;;5.38;100.00;95616.44;4979622;28;20069;-68
2024/02/27 04:26:12;;;;;;;11.00;6.35;;;;;;;5.32;100.00;95627.59;4974004;28;20046;-68
2024/02/27 04:28:38;;;;;;;9.38;5.88;;;;;;;5.30;100.00;95626.41;4976596;28;20092;-68
2024/02/27 04:31:05;;;;;;;12.02;6.50;;;;;;;5.25;100.00;95642.97;4989463;28;20049;-69
2024/02/27 04:33:31;;;;;;;9.38;6.43;;;;;;;5.21;100.00;95636.69;4981135;28;20070;-68
2024/02/27 04:35:56;;;;;;;12.80;6.43;;;;;;;5.21;100.00;95648.31;4979614;28;20472;-68
2024/02/27 04:38:22;;;;;;;10.13;6.10;;;;;;;5.16;100.00;95656.75;4974631;28;20551;-68
2024/02/27 04:40:48;;;;;;;12.80;6.30;;;;;;;5.15;100.00;95652.47;4982978;28;20030;-68
2024/02/27 04:43:13;;;;;;;12.50;7.65;;;;;;;5.19;100.00;95664.19;4971794;28;20038;-67
2024/02/27 04:45:38;;;;;;;10.50;6.03;;;;;;;5.19;100.00;95666.13;4982667;28;20043;-68
2024/02/27 04:48:06;;;;;;;13.00;7.20;;;;;;;5.24;100.00;95669.34;4978386;28;20050;-70
2024/02/27 04:50:32;;;;;;;11.27;5.88;;;;;;;5.24;100.00;95668.53;4982018;28;20147;-68
2024/02/27 04:52:57;;;;;;;10.60;6.13;;;;;;;5.31;100.00;95664.06;4983426;28;20042;-68
2024/02/27 04:55:23;;;;;;;10.65;6.53;;;;;;;5.28;100.00;95664.75;4977571;28;20043;-69
2024/02/27 04:57:48;;;;;;;13.18;6.80;;;;;;;5.25;100.00;95670.13;4977219;28;20761;-68
2024/02/27 05:00:14;;;;;;;14.43;8.27;;;;;;;5.28;100.00;95672.91;4974864;28;20393;-68
2024/02/27 05:02:39;;;;;;;11.00;6.32;;;;;;;5.26;100.00;95680.63;4983403;28;20413;-67
2024/02/27 05:05:05;;;;;;;13.27;6.00;;;;;;;5.41;100.00;95678.97;4978157;28;20038;-68
2024/02/27 05:07:31;;;;;;;11.38;5.97;;;;;;;5.51;100.00;95677.59;4982928;28;20138;-68
2024/02/27 05:09:57;;;;;;;12.18;6.50;;;;;;;5.48;100.00;95676.41;4983072;28;20133;-68
2024/02/27 05:12:22;;;;;;;11.45;6.88;;;;;;;5.39;100.00;95675.84;4977346;28;20854;-68
2024/02/27 05:14:48;;;;;;;12.68;6.43;;;;;;;5.36;100.00;95693.59;4983044;28;20092;-68
2024/02/27 05:17:13;;;;;;;12.32;7.10;;;;;;;5.43;100.00;95687.53;4978158;28;20061;-68
2024/02/27 05:19:39;;;;;;;13.85;5.88;;;;;;;5.51;100.00;95688.47;4982719;28;20042;-68
2024/02/27 05:22:04;;;;;;;12.27;7.20;;;;;;;5.30;100.00;95686.13;4977669;28;20043;-69
2024/02/27 05:24:29;;;;;;;11.93;6.65;;;;;;;5.19;100.00;95683.19;4982706;28;20129;-68
2024/02/27 05:26:55;;;;;;;9.73;6.30;;;;;;;5.11;100.00;95679.56;4982180;28;20046;-69
2024/02/27 05:29:20;;;;;;;11.77;6.43;;;;;;;5.08;100.00;95688.41;4978166;28;22141;-69
2024/02/27 05:31:46;;;;;;;11.68;7.13;;;;;;;5.04;100.00;95681.31;4997271;28;20065;-68
2024/02/27 05:34:11;;;;;;;10.75;6.95;;;;;;;5.07;100.00;95688.75;4977785;28;20136;-68
2024/02/27 05:36:36;;;;;;;12.35;7.18;;;;;;;5.03;100.00;95683.25;4982121;28;20775;-68
2024/02/27 05:39:02;;;;;;;12.23;6.70;;;;;;;5.01;100.00;95673.91;4992848;28;20117;-68
2024/02/27 05:41:27;;;;;;;11.98;7.40;;;;;;;4.99;100.00;95682.38;4987733;28;20042;-68
2024/02/27 05:43:53;;;;;;;11.10;7.03;;;;;;;4.98;100.00;95684.28;4982852;28;20042;-68
2024/02/27 05:46:18;;;;;;;13.40;7.68;;;;;;;4.98;100.00;95691.66;4977638;28;20043;-68
2024/02/27 05:48:43;;;;;;;12.75;7.25;;;;;;;4.97;100.00;95688.16;4963796;28;20556;-68
2024/02/27 05:51:09;;;;;;;11.93;8.07;;;;;;;4.98;100.00;95702.50;4975533;28;20042;-68
2024/02/27 05:53:35;;;;;;;14.30;7.05;;;;;;;4.96;100.00;95700.16;4982580;28;20042;-68
2024/02/27 05:56:02;;;;;;;11.63;7.00;;;;;;;4.92;100.00;95712.88;4979963;28;20497;-68
2024/02/27 05:58:28;;;;;;;11.00;7.10;;;;;;;4.92;100.00;95717.50;4980514;28;20057;-68
2024/02/27 06:00:54;;;;;;;12.63;7.00;;;;;;;4.91;100.00;95727.56;4977057;28;20038;-68
2024/02/27 06:03:21;;;;;;;13.45;7.32;;;;;;;4.91;100.00;95735.69;4973465;28;20461;-68
2024/02/27 06:05:46;;;;;;;13.45;6.72;;;;;;;4.91;100.00;95743.84;4981795;28;20105;-68
2024/02/27 06:08:16;;;;;;;12.00;7.18;;;;;;;4.91;100.00;95738.41;4975915;28;20532;-68
2024/02/27 06:10:42;;;;;;;12.23;6.68;;;;;;;4.90;100.00;95739.56;4981554;28;20476;-68
2024/02/27 06:13:08;;;;;;;13.50;6.85;;;;;;;4.93;100.00;95749.72;4976545;28;20038;-68
2024/02/27 06:15:34;;;;;;;11.65;7.10;;;;;;;4.94;100.00;95755.94;4981798;28;20050;-68
2024/02/27 06:17:59;;;;;;;12.35;7.20;;;;;;;4.94;100.00;95758.66;4981496;28;20138;-67
2024/02/27 06:23:09;;;;;;;14.65;7.35;;;;;;;4.95;100.00;95750.16;4975822;28;20047;-68
2024/02/27 06:25:34;;;;;;;12.50;6.57;;;;;;;4.98;100.00;95754.06;4981887;28;20413;-67
2024/02/27 06:27:59;;;;;;;15.13;8.25;;;;;;;4.96;100.00;95743.56;4980121;28;20050;-68
2024/02/27 06:30:25;;;;;;;12.95;7.70;;;;;;;5.06;100.00;95747.69;4974876;28;20042;-68
2024/02/27 06:32:50;;;;;;;19.33;10.25;;;;;;;5.10;100.00;95734.19;5002341;28;20049;-68
2024/02/27 06:35:16;;;;;;;17.85;9.38;;;;;;;5.21;100.00;95743.34;4970512;28;20456;-67
2024/02/27 06:37:41;;;;;;;16.45;8.48;;;;;;;5.25;100.00;95741.47;4981177;28;20047;-66
2024/02/27 06:40:07;;;;;;;15.80;8.73;;;;;;;5.20;100.00;95747.19;4975522;28;20069;-66
2024/02/27 06:42:36;;;;;;;16.83;9.63;;;;;;;5.10;100.00;95766.75;4981257;28;20076;-67
2024/02/27 06:45:09;;;;;;;18.23;10.07;;;;;;;5.09;100.00;95763.25;4977561;28;20042;-70
2024/02/27 06:47:38;;;;;;;18.13;11.20;;;;;;;5.09;100.00;95778.75;4980093;28;20039;-69
2024/02/27 06:50:04;;;;;;;20.98;12.00;;;;;;;4.87;100.00;95788.31;4976157;28;20065;-69
2024/02/27 06:52:30;;;;;;;19.42;10.23;;;;;;;4.85;100.00;95783.25;4981341;28;20152;-68
2024/02/27 06:54:55;;;;;;;20.23;10.68;;;;;;;4.90;100.00;95782.19;4980977;28;20128;-68
2024/02/27 06:57:20;;;;;;;24.20;12.60;;;;;;;4.75;100.00;95781.88;4975527;28;20862;-69
2024/02/27 06:59:46;;;;;;;23.23;12.50;;;;;;;4.69;100.00;95785.19;4980844;28;20674;-69
2024/02/27 07:02:11;;;;;;;17.63;9.90;;;;;;;4.85;100.00;95796.03;4976002;28;20444;-69
2024/02/27 07:04:37;;;;;;;20.55;11.80;;;;;;;4.73;100.00;95797.69;4980324;28;20085;-70
2024/02/27 07:07:03;;;;;;;20.83;13.43;;;;;;;4.65;100.00;95787.03;4978450;28;20424;-70
2024/02/27 07:09:31;;;;;;;21.88;12.23;;;;;;;4.72;100.00;95787.97;4979218;28;20046;-69
2024/02/27 07:11:59;;;;;;;19.20;11.18;;;;;;;4.79;100.00;95781.94;4985379;28;20050;-69
2024/02/27 07:14:26;;;;;;;18.55;10.13;;;;;;;4.91;100.00;95792.69;4977600;28;20144;-68
2024/02/27 07:16:51;;;;;;;21.30;12.20;;;;;;;4.95;100.00;95782.72;4993190;28;20052;-68
2024/02/27 07:19:21;;;;;;;20.88;11.57;;;;;;;4.93;100.00;95789.63;4973635;28;20501;-67
2024/02/27 07:21:49;;;;;;;20.30;11.90;;;;;;;4.79;100.00;95798.22;4968440;28;20041;-67
2024/02/27 07:24:15;;;;;;;20.03;10.97;;;;;;;5.01;100.00;95796.03;4973957;28;20454;-68
2024/02/27 07:26:41;;;;;;;19.25;11.02;;;;;;;5.14;100.00;95797.47;4979644;28;20044;-68
2024/02/27 07:29:07;;;;;;;21.80;11.88;;;;;;;5.08;100.00;95801.63;4974835;28;20061;-68
2024/02/27 07:31:33;;;;;;;21.83;12.15;;;;;;;5.09;100.00;95812.09;4980646;28;20085;-68
2024/02/27 07:33:59;;;;;;;20.85;11.75;;;;;;;5.06;100.00;95814.72;4997971;28;20038;-68
2024/02/27 07:36:25;;;;;;;19.50;11.65;;;;;;;5.00;100.00;95814.22;4976098;28;20342;-68
2024/02/27 07:38:51;;;;;;;22.67;13.00;;;;;;;5.02;100.00;95813.88;4979224;28;20049;-67
2024/02/27 07:41:17;;;;;;;22.52;13.23;;;;;;;5.04;100.00;95815.09;4975347;28;20390;-68
2024/02/27 07:43:42;;;;;;;20.45;11.73;;;;;;;5.19;100.00;95808.06;4978023;28;20617;-67
2024/02/27 07:46:12;;;;;;;26.15;12.25;;;;;;;5.14;100.00;95811.81;4973923;28;20092;-67
2024/02/27 07:48:37;;;;;;;;;;;;;;;5.26;100.00;95816.38;4979630;28;20081;-68
2024/02/27 07:51:04;;;;;;;38.55;16.88;;;;;;;5.07;100.00;95822.53;4976989;28;19976;-69
2024/02/27 07:53:29;;;;;;;25.17;14.05;;;;;;;5.17;100.00;95818.50;4980264;28;20058;-68
2024/02/27 07:55:55;;;;;;;26.00;13.20;;;;;;;5.12;100.00;95810.63;4979375;28;20038;-68
2024/02/27 07:58:20;;;;;;;29.83;13.88;;;;;;;5.25;100.00;95814.00;4975370;28;20069;-68
2024/02/27 08:00:45;;;;;;;24.73;13.35;;;;;;;5.21;100.00;95811.22;4979917;28;20034;-67
2024/02/27 08:03:11;;;;;;;25.63;13.75;;;;;;;5.20;100.00;95819.72;4976078;28;20537;-67
2024/02/27 08:05:37;;;;;;;24.08;14.35;;;;;;;5.05;100.00;95815.88;4979415;28;20074;-68
2024/02/27 08:08:02;;;;;;;31.73;13.60;;;;;;;4.98;100.00;95819.97;4975629;28;20054;-67
2024/02/27 08:10:28;;;;;;;24.33;13.40;;;;;;;5.05;100.00;95829.44;4978260;28;20046;-68
2024/02/27 08:12:53;;;;;;;25.40;13.68;;;;;;;5.12;100.00;95835.03;4979774;28;20041;-67
2024/02/27 08:15:18;;;;;;;35.92;14.85;;;;;;;5.21;100.00;95837.59;4973857;28;20054;-67
2024/02/27 08:17:44;;;;;;;25.60;13.55;;;;;;;5.25;100.00;95860.94;4980247;28;20486;-69
2024/02/27 08:20:10;;;;;;;26.55;13.57;;;;;;;5.03;100.00;95861.59;4974427;28;20046;-69
2024/02/27 08:22:36;;;;;;;25.70;13.75;;;;;;;5.23;100.00;95857.00;4980060;28;20042;-67
2024/02/27 08:25:02;;;;;;;26.80;13.50;;;;;;;5.02;100.00;95855.34;4979304;28;20536;-67
2024/02/27 08:27:29;;;;;;;29.77;16.67;;;;;;;5.16;100.00;95863.06;4977987;28;20046;-67
2024/02/27 08:29:54;;;;;;;27.50;14.27;;;;;;;5.06;100.00;95866.28;4980972;28;20046;-68
2024/02/27 08:32:20;;;;;;;24.23;13.90;;;;;;;4.97;100.00;95869.22;4975186;28;20034;-68
2024/02/27 08:34:46;;;;;;;24.00;13.93;;;;;;;4.99;100.00;95875.06;5000581;28;20046;-68
2024/02/27 08:37:12;;;;;;;25.13;14.23;;;;;;;5.02;100.00;95877.06;4977088;28;20096;-68
2024/02/27 08:39:37;;;;;;;22.83;12.90;;;;;;;5.08;100.00;95874.91;4979407;28;20767;-68
2024/02/27 08:42:04;;;;;;;26.25;14.57;;;;;;;5.05;100.00;95875.59;4975633;28;20057;-67
2024/02/27 08:44:29;;;;;;;26.38;15.50;;;;;;;4.87;100.00;95880.56;4986488;28;20046;-67
2024/02/27 08:46:55;;;;;;;30.08;14.65;;;;;;;4.91;100.00;95876.03;4989747;28;20181;-68
2024/02/27 08:49:20;;;;;;;24.27;13.13;;;;;;;5.01;100.00;95880.16;4976017;28;20141;-68
2024/02/27 08:51:45;;;;;;;30.33;15.95;;;;;;;5.16;100.00;95877.41;4979454;28;20038;-68
2024/02/27 08:54:11;;;;;;;30.10;13.73;;;;;;;5.35;100.00;95884.84;4973900;28;20045;-68
2024/02/27 08:56:39;;;;;;;25.40;13.45;;;;;;;5.09;100.00;95890.03;4979606;28;20056;-68
2024/02/27 08:59:06;;;;;;;24.10;13.02;;;;;;;5.28;100.00;95883.91;4974835;28;20100;-67
2024/02/27 09:01:31;;;;;;;23.20;12.90;;;;;;;5.59;100.00;95882.28;4979244;28;20129;-66
2024/02/27 09:03:57;;;;;;;60.53;17.65;;;;;;;5.23;100.00;95895.81;4979372;28;20121;-67
2024/02/27 09:06:22;;;;;;;27.60;13.30;;;;;;;5.17;100.00;95902.66;4974472;28;20100;-67
2024/02/27 09:08:48;;;;;;;25.92;14.35;;;;;;;5.03;100.00;95899.59;4978861;28;20034;-67
2024/02/27 09:11:13;;;;;;;25.95;14.27;;;;;;;5.06;100.00;95893.44;4974007;28;20046;-67
2024/02/27 09:13:38;;;;;;;27.13;14.13;;;;;;;5.05;100.00;95891.88;4977564;28;20680;-67
2024/02/27 09:16:05;;;;;;;27.35;13.82;;;;;;;5.13;100.00;95897.13;4973862;28;20051;-67
2024/02/27 09:18:31;;;;;;;29.15;15.25;;;;;;;5.29;100.00;95897.09;4978608;28;20445;-68
2024/02/27 09:20:57;;;;;;;23.90;13.93;;;;;;;5.19;100.00;95907.72;4979405;28;20049;-67
2024/02/27 09:23:23;;;;;;;22.88;14.35;;;;;;;5.34;100.00;95906.91;4975003;28;20782;-68
2024/02/27 09:25:48;;;;;;;23.15;13.75;;;;;;;5.35;100.00;95908.50;4980746;28;20044;-68
2024/02/27 09:28:15;;;;;;;31.08;15.40;;;;;;;5.49;100.00;95902.59;4977581;28;20080;-68
2024/02/27 09:30:41;;;;;;;24.95;14.52;;;;;;;5.39;100.00;95901.22;4982090;28;20101;-68
2024/02/27 09:33:07;;;;;;;26.77;13.32;;;;;;;5.76;100.00;95890.00;4977282;28;20049;-68
2024/02/27 09:35:33;;;;;;;26.10;12.80;;;;;;;5.91;100.00;95902.00;4999237;28;20030;-68
2024/02/27 09:37:58;;;;;;;26.92;14.38;;;;;;;5.91;100.00;95897.34;4989306;28;20034;-68
2024/02/27 09:40:23;;;;;;;29.75;15.85;;;;;;;6.16;100.00;95893.59;4977550;28;20066;-69
2024/02/27 09:42:54;;;;;;;28.45;15.27;;;;;;;5.96;100.00;95898.22;4983494;28;20042;-67
2024/02/27 09:45:22;;;;;;;26.50;15.10;;;;;;;5.65;100.00;95889.00;4978179;28;20034;-68
2024/02/27 09:47:49;;;;;;;27.70;14.95;;;;;;;5.81;100.00;95888.97;4982153;28;20048;-69
2024/02/27 09:50:18;;;;;;;27.08;15.82;;;;;;;5.93;100.00;95892.34;4977672;28;20045;-69
2024/02/27 09:52:47;;;;;;;30.75;15.68;;;;;;;6.02;100.00;95888.66;4982377;28;20049;-67
2024/02/27 09:55:13;;;;;;;28.40;15.00;;;;;;;6.09;100.00;95894.25;4977726;28;20496;-66
2024/02/27 09:57:40;;;;;;;31.00;17.70;;;;;;;5.60;100.00;95871.06;4998087;28;20076;-67
2024/02/27 10:00:06;;;;;;;30.88;16.80;;;;;;;5.62;100.00;95887.78;4991678;28;20046;-67
2024/02/27 10:02:32;;;;;;;34.10;16.35;;;;;;;5.59;100.00;95898.56;4986973;28;20042;-67
2024/02/27 10:05:01;;;;;;;30.20;16.92;;;;;;;5.53;100.00;95898.84;4981991;28;20065;-67
2024/02/27 10:07:27;;;;;;;32.28;17.27;;;;;;;5.55;100.00;95899.28;4978679;28;20038;-68
2024/02/27 10:09:53;;;;;;;30.92;16.50;;;;;;;5.70;100.00;95899.59;4982347;28;20041;-68
2024/02/27 10:12:19;;;;;;;32.33;16.98;;;;;;;5.75;100.00;95907.47;4976766;28;20684;-67
2024/02/27 10:14:45;;;;;;;30.00;16.20;;;;;;;5.90;100.00;95909.34;4982262;28;20053;-67
2024/02/27 10:17:10;;;;;;;34.33;17.52;;;;;;;5.91;100.00;95916.38;5000591;28;20102;-67
2024/02/27 10:19:37;;;;;;;28.75;16.10;;;;;;;5.92;100.00;95909.00;4991300;28;20042;-68
2024/02/27 10:22:03;;;;;;;29.83;16.17;;;;;;;6.11;100.00;95913.72;4977246;28;20077;-67
2024/02/27 10:24:29;;;;;;;30.48;14.77;;;;;;;6.23;100.00;95913.56;4974313;28;20569;-67
2024/02/27 10:26:56;;;;;;;28.80;16.70;;;;;;;6.00;100.00;95923.56;4982303;28;20050;-67
2024/02/27 10:29:27;;;;;;;30.60;15.50;;;;;;;6.09;100.00;95927.66;4977810;28;20065;-67
2024/02/27 10:31:53;;;;;;;32.30;16.02;;;;;;;6.31;100.00;95928.88;4981450;28;20065;-67
2024/02/27 10:34:26;;;;;;;31.75;16.50;;;;;;;6.15;100.00;95928.16;4977538;28;20042;-67
2024/02/27 10:36:59;;;;;;;34.90;17.23;;;;;;;6.47;100.00;95933.47;4995094;28;20046;-67
2024/02/27 10:39:25;;;;;;;30.00;17.17;;;;;;;6.51;100.00;95937.81;4982743;28;20141;-68
2024/02/27 10:41:51;;;;;;;29.80;16.15;;;;;;;6.99;100.00;95953.91;4980980;28;20133;-68
2024/02/27 10:44:17;;;;;;;29.33;16.50;;;;;;;6.53;100.00;95948.34;4976614;28;20048;-68
2024/02/27 10:46:43;;;;;;;31.85;17.05;;;;;;;6.56;100.00;95953.09;4980556;28;20042;-68
2024/02/27 10:49:08;;;;;;;31.30;16.45;;;;;;;6.44;100.00;95956.72;4974456;28;20038;-67
2024/02/27 10:51:36;;;;;;;28.58;15.73;;;;;;;6.47;100.00;95953.28;4981474;28;20046;-68
2024/02/27 10:54:02;;;;;;;29.25;15.82;;;;;;;6.70;100.00;95961.53;4979629;28;20092;-67
2024/02/27 10:56:28;;;;;;;27.35;16.38;;;;;;;6.36;100.00;95949.56;4981622;28;20485;-67
2024/02/27 10:58:54;;;;;;;29.92;15.60;;;;;;;6.27;100.00;95962.59;4978892;28;20142;-68
2024/02/27 11:01:21;;;;;;;30.02;15.77;;;;;;;6.40;100.00;95946.94;4974557;28;20046;-68
2024/02/27 11:03:51;;;;;;;26.02;14.95;;;;;;;6.48;100.00;95952.16;4980042;28;20473;-68
2024/02/27 11:06:22;;;;;;;31.13;16.40;;;;;;;6.39;100.00;95940.72;4975037;28;20050;-68
2024/02/27 11:08:53;;;;;;;29.00;15.95;;;;;;;6.69;100.00;95943.59;4980683;28;20378;-68
2024/02/27 11:11:20;;;;;;;29.73;17.05;;;;;;;6.57;100.00;95940.25;4976100;28;20039;-68
2024/02/27 11:13:48;;;;;;;29.83;15.15;;;;;;;6.96;100.00;95932.81;4980526;28;20058;-68
2024/02/27 11:16:16;;;;;;;32.20;16.65;;;;;;;7.31;100.00;95934.63;4973761;28;20543;-67
2024/02/27 11:18:47;;;;;;;38.70;16.83;;;;;;;7.35;100.00;95937.41;4980098;28;20149;-68
2024/02/27 11:21:13;;;;;;;27.95;14.48;;;;;;;8.02;100.00;95942.28;4975444;28;20074;-68